Time;durP1;ratioP1;P1;durP2;ratioP2;P2;SDS_P1;SDS_P2;PMS_P1;PMS_P2;Temp;Humidity;BMP_temperature;BMP_pressure;BME280_temperature;BME280_humidity;BME280_pressure;Samples;Min_cycle;Max_cycle;Signal;HPM_P1;HPM_P2
2022/08/24 00:01:10;;;;;;;24.25;8.45;;;;;;;20.03;87.38;101547.53;1700687;84;20992;-86
2022/08/24 00:03:39;;;;;;;18.48;9.15;;;;;;;19.87;87.11;101525.27;1674588;84;20980;-87
2022/08/24 00:06:08;;;;;;;17.85;8.18;;;;;;;19.87;87.11;101525.27;1674465;84;21738;-87
2022/08/24 00:08:35;;;;;;;16.90;8.40;;;;;;;19.95;87.33;101543.53;1684595;84;20999;-87
2022/08/24 00:11:02;;;;;;;21.45;8.98;;;;;;;19.77;87.53;101515.03;1697621;84;21019;-86
2022/08/24 00:13:29;;;;;;;20.00;9.35;;;;;;;19.77;87.53;101515.03;1680524;84;21578;-85
2022/08/24 00:15:56;;;;;;;19.32;9.53;;;;;;;19.88;87.53;101535.07;1686355;84;21446;-85
2022/08/24 00:18:26;;;;;;;15.93;8.43;;;;;;;19.86;87.69;101531.52;1682944;84;21762;-86
2022/08/24 00:20:53;;;;;;;18.57;9.38;;;;;;;19.87;87.69;101531.94;1677894;85;21498;-85
2022/08/24 00:23:20;;;;;;;20.05;8.48;;;;;;;19.87;87.76;101522.59;1692490;84;20992;-86
2022/08/24 00:25:47;;;;;;;19.37;9.30;;;;;;;19.90;87.86;101511.03;1694834;84;21814;-87
2022/08/24 00:28:14;;;;;;;15.13;8.18;;;;;;;19.90;87.86;101511.03;1672698;84;21003;-86
2022/08/24 00:30:41;;;;;;;15.60;9.18;;;;;;;19.89;88.09;101507.90;1672224;84;21218;-86
2022/08/24 00:33:08;;;;;;;22.25;9.58;;;;;;;19.94;88.08;101516.81;1666787;84;21020;-86
2022/08/24 00:35:35;;;;;;;14.85;8.53;;;;;;;19.95;88.03;101515.48;1678381;84;20995;-86
2022/08/24 00:38:02;;;;;;;15.78;9.00;;;;;;;19.98;88.08;101509.22;1672115;84;21457;-87
2022/08/24 00:40:38;;;;;;;22.87;9.65;;;;;;;19.98;88.07;101507.44;1652516;84;21039;-86
2022/08/24 00:43:06;;;;;;;19.75;9.50;;;;;;;19.98;88.08;101512.78;1676139;84;21419;-86
2022/08/24 00:45:56;;;;;;;17.65;8.83;;;;;;;19.98;88.12;101508.77;1672584;84;20964;-87
2022/08/24 00:48:28;;;;;;;23.85;9.18;;;;;;;20.00;88.15;101511.45;1685089;84;21441;-86
2022/08/24 00:50:59;;;;;;;14.43;8.10;;;;;;;19.94;88.20;101500.32;1680370;83;21394;-87
2022/08/24 00:53:36;;;;;;;16.12;8.65;;;;;;;19.94;88.20;101500.32;1688094;83;21534;-86
2022/08/24 00:56:08;;;;;;;16.62;8.95;;;;;;;19.93;88.17;101486.95;1672558;84;21729;-87
2022/08/24 00:58:44;;;;;;;15.65;8.13;;;;;;;19.93;88.17;101486.95;1672326;84;20984;-87
2022/08/24 01:01:12;;;;;;;18.42;9.50;;;;;;;19.97;88.11;101495.41;1692070;84;21003;-87
2022/08/24 01:03:41;;;;;;;15.53;8.33;;;;;;;20.06;88.18;101507.87;1660228;85;21033;-86
2022/08/24 01:06:08;;;;;;;17.27;9.03;;;;;;;19.93;88.09;101482.95;1672908;84;21035;-86
2022/08/24 01:08:35;;;;;;;16.35;9.10;;;;;;;19.93;88.09;101482.95;1675158;84;21355;-86
2022/08/24 01:11:13;;;;;;;19.02;9.50;;;;;;;19.91;88.09;101483.40;1680511;84;21008;-87
2022/08/24 01:13:42;;;;;;;17.35;9.20;;;;;;;20.02;88.11;101506.10;1671558;84;21462;-86
2022/08/24 01:16:09;;;;;;;19.37;9.53;;;;;;;19.99;88.16;101508.34;1665714;84;21027;-86
2022/08/24 01:18:51;;;;;;;17.70;9.30;;;;;;;19.98;88.21;101506.09;1679920;84;21019;-86
2022/08/24 01:21:25;;;;;;;21.33;9.20;;;;;;;19.99;88.29;101507.01;1699865;84;21783;-86
2022/08/24 01:23:56;;;;;;;;;;;;;;;19.98;88.35;101510.56;1697946;84;20980;-86
2022/08/24 01:26:41;;;;;;;15.32;9.90;;;;;;;19.98;88.48;101515.91;1674548;85;20172;-86
2022/08/24 01:29:15;;;;;;;18.60;10.03;;;;;;;20.02;88.54;101522.14;1672406;84;21540;-87
2022/08/24 01:31:42;;;;;;;13.88;9.15;;;;;;;20.02;88.54;101522.14;1672466;84;21012;-87
2022/08/24 01:34:10;;;;;;;13.38;8.98;;;;;;;20.03;88.56;101529.24;1677954;84;22546;-86
2022/08/24 01:36:39;;;;;;;18.05;10.32;;;;;;;20.06;88.53;101526.58;1686120;84;20973;-87
2022/08/24 01:39:17;;;;;;;18.00;9.88;;;;;;;20.06;88.54;101529.25;1676317;84;21447;-86
2022/08/24 01:41:44;;;;;;;16.05;8.85;;;;;;;20.09;88.48;101544.84;1700615;84;21043;-87
2022/08/24 01:44:12;;;;;;;16.00;10.35;;;;;;;20.09;88.48;101544.84;1697217;83;21000;-86
2022/08/24 01:46:44;;;;;;;14.45;8.98;;;;;;;20.12;88.52;101551.95;1672412;84;21733;-87
2022/08/24 01:49:12;;;;;;;13.78;9.65;;;;;;;19.99;88.33;101526.59;1672344;84;21336;-88
2022/08/24 01:51:38;;;;;;;17.62;9.10;;;;;;;19.99;88.33;101526.59;1672458;84;21007;-88
2022/08/24 01:54:05;;;;;;;16.95;9.88;;;;;;;20.12;88.43;101542.59;1672299;84;21301;-88
2022/08/24 01:56:32;;;;;;;15.65;10.28;;;;;;;20.12;88.39;101539.92;1672566;84;21003;-87
2022/08/24 01:58:59;;;;;;;16.85;9.85;;;;;;;20.02;88.42;101518.13;1672459;84;21733;-87
2022/08/24 02:01:27;;;;;;;16.45;10.13;;;;;;;20.10;88.44;101539.03;1678981;84;20995;-87
2022/08/24 02:03:55;;;;;;;14.35;9.75;;;;;;;19.97;88.47;101507.01;1685408;83;20999;-88
2022/08/24 02:06:21;;;;;;;20.92;11.10;;;;;;;20.09;88.51;101531.47;1672539;84;21021;-86
2022/08/24 02:08:48;;;;;;;19.20;10.63;;;;;;;20.09;88.56;101536.81;1651365;86;21045;-86
2022/08/24 02:11:15;;;;;;;20.12;10.13;;;;;;;20.08;88.65;101540.83;1636719;85;21746;-86
2022/08/24 02:13:42;;;;;;;20.50;10.15;;;;;;;20.09;88.65;101544.84;1646683;85;21029;-87
2022/08/24 02:16:10;;;;;;;18.85;11.38;;;;;;;20.10;88.65;101549.73;1687362;83;21007;-86
2022/08/24 02:18:39;;;;;;;17.55;10.03;;;;;;;20.09;88.72;101550.64;1707304;83;20991;-86
2022/08/24 02:21:07;;;;;;;17.10;11.95;;;;;;;20.03;88.72;101536.84;1687272;83;21552;-87
2022/08/24 02:23:35;;;;;;;17.27;10.43;;;;;;;20.08;88.67;101556.86;1687065;83;21730;-88
2022/08/24 02:26:04;;;;;;;18.45;10.35;;;;;;;20.08;88.67;101556.86;1659991;85;21007;-88
2022/08/24 02:28:34;;;;;;;20.82;11.10;;;;;;;20.09;88.80;101556.86;1688744;83;20975;-87
2022/08/24 02:31:04;;;;;;;19.25;10.25;;;;;;;20.07;88.78;101557.31;1689043;83;21054;-88
2022/08/24 02:33:31;;;;;;;16.23;11.22;;;;;;;20.07;88.78;101557.31;1688841;83;21027;-87
2022/08/24 02:35:58;;;;;;;16.62;11.35;;;;;;;20.06;88.82;101554.18;1689132;83;21736;-87
2022/08/24 02:38:25;;;;;;;19.90;10.78;;;;;;;20.06;88.88;101556.86;1689146;83;20963;-87
2022/08/24 02:40:51;;;;;;;17.48;10.50;;;;;;;20.08;88.83;101560.41;1642116;85;21046;-87
2022/08/24 02:43:18;;;;;;;16.82;11.22;;;;;;;20.02;88.82;101553.75;1641859;86;21032;-87
2022/08/24 02:45:45;;;;;;;19.62;10.88;;;;;;;20.07;88.76;101567.12;1661118;86;21026;-88
2022/08/24 02:48:13;;;;;;;21.80;10.50;;;;;;;20.06;88.72;101576.02;1641874;85;21730;-87
2022/08/24 02:50:44;;;;;;;17.82;9.83;;;;;;;20.02;88.62;101573.79;1661174;86;20983;-87
2022/08/24 02:53:12;;;;;;;16.05;10.48;;;;;;;19.87;88.56;101553.77;1642187;86;21011;-87
2022/08/24 02:55:40;;;;;;;18.35;9.75;;;;;;;19.84;88.54;101556.02;1660836;85;21007;-87
2022/08/24 02:58:08;;;;;;;14.10;9.75;;;;;;;19.92;88.48;101567.57;1642675;86;21049;-87
2022/08/24 03:00:35;;;;;;;17.35;10.35;;;;;;;19.87;88.54;101577.36;1657497;86;21757;-87
2022/08/24 03:03:02;;;;;;;17.35;10.60;;;;;;;19.83;88.68;101576.92;1644706;85;21010;-87
2022/08/24 03:05:29;;;;;;;15.95;10.58;;;;;;;19.81;88.73;101583.59;1655300;86;21011;-87
2022/08/24 03:07:56;;;;;;;19.25;11.65;;;;;;;19.76;88.55;101586.73;1647068;85;21027;-87
2022/08/24 03:10:22;;;;;;;21.20;10.85;;;;;;;19.76;88.55;101586.73;1665425;84;21043;-87
2022/08/24 03:12:50;;;;;;;16.40;10.48;;;;;;;19.75;88.62;101602.76;1654836;85;21785;-87
2022/08/24 03:15:16;;;;;;;23.07;10.55;;;;;;;19.72;88.56;101602.70;1641993;85;21013;-87
2022/08/24 03:17:43;;;;;;;17.37;9.68;;;;;;;19.69;88.54;101601.36;1641898;86;21025;-88
2022/08/24 03:20:13;;;;;;;12.30;9.55;;;;;;;19.66;88.52;101606.72;1641569;85;21061;-86
2022/08/24 03:22:40;;;;;;;15.38;9.80;;;;;;;19.63;88.49;101607.58;1651676;85;21624;-86
2022/08/24 03:25:07;;;;;;;17.48;9.60;;;;;;;19.59;88.51;101609.36;1670825;85;21728;-86
2022/08/24 03:27:35;;;;;;;13.60;9.10;;;;;;;19.57;88.59;101609.80;1696822;83;21940;-86
2022/08/24 03:30:03;;;;;;;15.00;9.75;;;;;;;19.51;88.57;101604.91;1714490;83;20989;-86
2022/08/24 03:32:31;;;;;;;16.85;9.33;;;;;;;19.53;88.67;101621.83;1678459;85;21011;-86
2022/08/24 03:34:57;;;;;;;19.45;9.88;;;;;;;19.46;88.89;101622.24;1685628;84;21049;-86
2022/08/24 03:37:25;;;;;;;13.28;9.30;;;;;;;19.46;88.89;101622.24;1672469;84;23455;-86
2022/08/24 03:39:52;;;;;;;15.48;9.65;;;;;;;19.46;88.74;101624.03;1672330;84;20968;-86
2022/08/24 03:42:19;;;;;;;17.05;10.40;;;;;;;19.42;88.76;101620.46;1693903;84;21032;-86
2022/08/24 03:44:46;;;;;;;14.65;10.35;;;;;;;19.42;89.01;101629.80;1694940;84;21122;-86
2022/08/24 03:47:12;;;;;;;18.77;10.93;;;;;;;19.46;89.25;101630.25;1676618;84;21032;-88
2022/08/24 03:49:39;;;;;;;18.27;11.20;;;;;;;19.50;89.39;101628.48;1683507;84;22544;-88
2022/08/24 03:52:06;;;;;;;17.45;10.63;;;;;;;19.53;89.42;101630.72;1672391;84;20992;-87
2022/08/24 03:54:33;;;;;;;13.85;10.28;;;;;;;19.54;89.35;101625.84;1672389;84;20984;-87
2022/08/24 03:57:00;;;;;;;15.60;10.65;;;;;;;19.42;89.25;101607.11;1672479;84;21008;-87
2022/08/24 03:59:27;;;;;;;18.98;10.78;;;;;;;19.42;89.25;101607.11;1692108;84;21107;-86
2022/08/24 04:01:56;;;;;;;17.62;10.25;;;;;;;19.53;89.23;101618.70;1683511;84;21735;-87
2022/08/24 04:04:22;;;;;;;19.82;10.68;;;;;;;19.53;89.29;101624.05;1698768;83;21000;-86
2022/08/24 04:06:50;;;;;;;20.37;11.48;;;;;;;19.52;89.36;101616.94;1671797;84;20976;-86
2022/08/24 04:09:17;;;;;;;14.03;10.63;;;;;;;19.46;89.45;101605.34;1672575;84;21449;-87
2022/08/24 04:11:50;;;;;;;19.30;10.05;;;;;;;19.46;89.45;101605.34;1693314;83;21506;-85
2022/08/24 04:14:18;;;;;;;14.43;10.70;;;;;;;19.62;89.80;101624.52;1695379;84;22551;-87
2022/08/24 04:16:45;;;;;;;17.15;11.03;;;;;;;19.70;89.87;101626.74;1699072;84;21117;-87
2022/08/24 04:19:13;;;;;;;15.00;11.05;;;;;;;19.73;89.87;101628.12;1690693;84;21050;-86
2022/08/24 04:21:39;;;;;;;12.40;10.35;;;;;;;19.78;89.87;101625.02;1672012;84;21027;-87
2022/08/24 04:24:07;;;;;;;17.95;12.00;;;;;;;19.83;89.88;101629.47;1699214;84;21489;-86
2022/08/24 04:26:34;;;;;;;21.82;11.50;;;;;;;19.88;89.91;101627.25;1697948;84;21769;-87
2022/08/24 04:29:02;;;;;;;15.80;10.98;;;;;;;19.93;89.94;101624.56;1692386;84;21043;-86
2022/08/24 04:31:29;;;;;;;15.95;10.75;;;;;;;19.98;89.88;101629.02;1683092;84;20993;-87
2022/08/24 04:33:56;;;;;;;14.98;11.83;;;;;;;20.04;89.91;101632.14;1673914;84;21008;-86
2022/08/24 04:36:24;;;;;;;17.35;10.95;;;;;;;19.99;89.92;101612.11;1688375;85;21035;-88
2022/08/24 04:38:51;;;;;;;21.85;11.22;;;;;;;20.19;89.95;101632.58;1688999;85;21736;-92
2022/08/24 04:41:21;;;;;;;18.27;10.23;;;;;;;20.26;89.89;101633.03;1689020;85;21003;-90
2022/08/24 04:43:50;;;;;;;15.88;11.88;;;;;;;20.33;89.84;101633.47;1667518;84;21591;-91
2022/08/24 04:46:19;;;;;;;23.40;10.32;;;;;;;20.41;89.81;101638.80;1692651;84;21019;-91
2022/08/24 04:48:47;;;;;;;14.90;11.10;;;;;;;20.50;89.91;101640.13;1695044;84;21081;-86
2022/08/24 04:51:16;;;;;;;15.00;9.40;;;;;;;20.61;89.75;101641.48;1698737;84;21734;-86
2022/08/24 04:53:44;;;;;;;16.82;10.45;;;;;;;20.71;89.65;101639.21;1700557;83;20973;-86
2022/08/24 04:56:14;;;;;;;19.10;10.40;;;;;;;20.82;89.56;101642.32;1692183;83;21028;-86
2022/08/24 04:58:40;;;;;;;19.20;9.40;;;;;;;20.93;89.30;101652.55;1675805;85;20956;-86
2022/08/24 05:01:09;;;;;;;19.73;9.65;;;;;;;21.05;89.35;101656.49;1696865;84;21027;-87
2022/08/24 05:03:36;;;;;;;27.50;10.43;;;;;;;21.15;89.04;101653.32;1700595;84;21786;-86
2022/08/24 05:06:04;;;;;;;29.95;10.38;;;;;;;21.21;88.81;101648.39;1699707;83;20960;-87
2022/08/24 05:08:30;;;;;;;24.57;11.15;;;;;;;21.30;88.74;101650.59;1692106;83;21071;-88
2022/08/24 05:10:58;;;;;;;15.85;10.23;;;;;;;21.42;88.73;101646.07;1703382;83;21055;-88
2022/08/24 05:13:25;;;;;;;16.32;10.80;;;;;;;21.58;88.77;101651.79;1706532;82;22057;-87
2022/08/24 05:15:52;;;;;;;15.72;9.33;;;;;;;21.86;89.32;101655.62;1700127;83;21715;-87
2022/08/24 05:18:19;;;;;;;14.80;9.45;;;;;;;22.18;88.96;101651.34;1693845;83;20984;-88
2022/08/24 05:20:51;;;;;;;23.98;10.55;;;;;;;22.42;88.18;101657.43;1658349;84;21561;-87
2022/08/24 05:23:18;;;;;;;16.65;9.20;;;;;;;22.53;87.54;101655.53;1699792;83;20992;-87
2022/08/24 05:25:45;;;;;;;15.53;8.93;;;;;;;22.64;87.23;101662.13;1685571;83;21059;-88
2022/08/24 05:28:12;;;;;;;16.62;9.60;;;;;;;22.63;86.56;101659.00;1679913;84;21581;-87
2022/08/24 05:30:40;;;;;;;21.20;8.50;;;;;;;22.63;86.34;101659.00;1696968;84;21019;-87
2022/08/24 05:33:07;;;;;;;17.95;8.08;;;;;;;22.73;86.57;101660.70;1705583;81;20994;-87
2022/08/24 05:35:40;;;;;;;19.50;8.63;;;;;;;22.82;86.26;101661.91;1694155;84;20976;-87
2022/08/24 05:38:06;;;;;;;16.67;8.50;;;;;;;22.85;85.81;101656.97;1689065;84;21500;-87
2022/08/24 05:40:33;;;;;;;16.77;9.40;;;;;;;22.87;85.90;101658.72;1682285;84;21747;-86
2022/08/24 05:43:01;;;;;;;19.57;9.35;;;;;;;22.98;85.77;101652.35;1667410;84;21019;-86
2022/08/24 05:45:28;;;;;;;18.32;9.03;;;;;;;23.07;85.70;101660.33;1702735;84;21036;-87
2022/08/24 05:47:55;;;;;;;14.45;9.35;;;;;;;23.07;85.37;101657.19;1686549;84;21395;-87
2022/08/24 05:50:22;;;;;;;15.90;8.33;;;;;;;23.07;84.99;101657.64;1685902;84;20999;-86
2022/08/24 05:52:48;;;;;;;18.32;9.30;;;;;;;23.09;85.17;101658.52;1681299;83;21744;-87
2022/08/24 05:55:15;;;;;;;14.78;8.35;;;;;;;23.20;85.22;101662.38;1682254;84;21004;-87
2022/08/24 05:57:44;;;;;;;25.75;9.95;;;;;;;23.23;85.11;101668.61;1702815;84;20983;-86
2022/08/24 06:00:12;;;;;;;19.80;9.40;;;;;;;23.32;85.15;101668.95;1687855;83;21496;-85
2022/08/24 06:02:39;;;;;;;16.40;9.25;;;;;;;23.38;84.91;101670.20;1665825;84;21014;-86
2022/08/24 06:05:07;;;;;;;20.75;9.40;;;;;;;23.44;84.85;101668.80;1690652;84;22630;-86
2022/08/24 06:07:34;;;;;;;18.30;9.63;;;;;;;23.61;85.07;101673.02;1699105;84;21485;-85
2022/08/24 06:10:00;;;;;;;17.75;9.95;;;;;;;23.77;84.88;101673.70;1702624;84;21023;-86
2022/08/24 06:12:27;;;;;;;15.15;7.65;;;;;;;23.89;84.33;101670.84;1702685;84;22055;-87
2022/08/24 06:14:54;;;;;;;20.85;8.35;;;;;;;24.00;84.07;101670.67;1683642;84;21007;-87
2022/08/24 06:17:22;;;;;;;13.93;8.28;;;;;;;24.05;83.75;101666.12;1674387;84;22488;-87
2022/08/24 06:19:49;;;;;;;22.25;7.65;;;;;;;24.15;83.46;101662.34;1674204;84;21015;-87
2022/08/24 06:22:15;;;;;;;16.00;7.80;;;;;;;24.23;83.38;101668.50;1674471;84;21373;-87
2022/08/24 06:27:30;;;;;;;23.15;8.58;;;;;;;24.54;83.05;101672.48;1673439;84;21034;-87
2022/08/24 06:30:00;;;;;;;17.75;7.33;;;;;;;24.48;82.10;101677.95;1680753;83;21723;-87
2022/08/24 06:32:29;;;;;;;15.75;7.05;;;;;;;24.45;82.00;101674.36;1697629;83;21000;-87
2022/08/24 06:34:57;;;;;;;23.07;6.75;;;;;;;24.56;81.96;101675.56;1700316;83;21497;-87
2022/08/24 06:37:26;;;;;;;16.77;6.03;;;;;;;24.54;81.31;101680.09;1688299;83;21009;-87
2022/08/24 06:39:56;;;;;;;19.95;6.25;;;;;;;24.53;81.02;101682.36;1690031;83;21043;-87
2022/08/24 06:42:28;;;;;;;17.57;8.70;;;;;;;24.49;80.69;101685.09;1688278;84;21723;-87
2022/08/24 06:44:55;;;;;;;13.83;6.42;;;;;;;24.49;80.89;101683.27;1689412;84;20971;-87
2022/08/24 06:47:22;;;;;;;15.25;6.85;;;;;;;24.62;80.92;101688.89;1696865;83;21027;-87
2022/08/24 06:49:49;;;;;;;14.03;6.05;;;;;;;24.72;80.53;101689.64;1686652;83;20988;-87
2022/08/24 06:52:16;;;;;;;13.18;6.00;;;;;;;24.76;80.43;101689.12;1687317;83;21058;-85
2022/08/24 06:54:43;;;;;;;10.63;5.53;;;;;;;24.82;80.18;101695.73;1698540;83;21748;-85
2022/08/24 06:57:10;;;;;;;14.90;5.80;;;;;;;24.83;80.01;101690.31;1667778;83;21557;-85
2022/08/24 06:59:36;;;;;;;17.77;5.80;;;;;;;24.88;79.71;101692.91;1681011;83;20972;-85
2022/08/24 07:02:09;;;;;;;16.67;5.87;;;;;;;24.88;79.65;101689.33;1698643;83;21342;-87
2022/08/24 07:04:36;;;;;;;14.85;5.92;;;;;;;25.00;79.92;101691.77;1674267;85;21007;-87
2022/08/24 07:07:02;;;;;;;11.83;5.70;;;;;;;25.16;79.63;101696.40;1698768;83;21722;-87
2022/08/24 07:09:31;;;;;;;13.38;5.05;;;;;;;25.27;79.32;101697.09;1700662;83;21011;-86
2022/08/24 07:11:58;;;;;;;16.75;5.47;;;;;;;25.34;78.82;101691.09;1691638;84;21059;-87
2022/08/24 07:14:24;;;;;;;13.55;6.17;;;;;;;25.41;78.57;101699.48;1672259;84;21008;-87
2022/08/24 07:16:51;;;;;;;13.43;5.65;;;;;;;25.44;78.22;101703.94;1672269;84;21037;-87
2022/08/24 07:19:18;;;;;;;13.18;5.08;;;;;;;25.36;77.76;101695.55;1687407;83;21782;-87
2022/08/24 07:21:45;;;;;;;12.58;5.60;;;;;;;25.43;78.14;101702.14;1699357;83;20987;-87
2022/08/24 07:24:12;;;;;;;13.13;6.05;;;;;;;25.42;77.35;101698.58;1672535;83;21541;-86
2022/08/24 07:26:38;;;;;;;15.38;6.47;;;;;;;25.42;77.66;101705.31;1700340;83;21491;-86
2022/08/24 07:29:13;;;;;;;14.40;6.12;;;;;;;25.39;77.18;101699.97;1677858;85;21889;-86
2022/08/24 07:31:41;;;;;;;16.05;6.17;;;;;;;25.37;77.08;101712.59;1703640;83;21754;-85
2022/08/24 07:34:10;;;;;;;13.68;6.37;;;;;;;25.37;77.13;101713.95;1715745;83;20999;-86
2022/08/24 07:36:37;;;;;;;15.60;5.70;;;;;;;25.49;77.48;101710.09;1711830;82;21033;-87
2022/08/24 07:39:09;;;;;;;13.58;7.22;;;;;;;25.62;76.85;101715.67;1717048;82;21486;-88
2022/08/24 07:41:40;;;;;;;12.68;5.62;;;;;;;25.68;76.56;101714.17;1719048;81;21474;-85
2022/08/24 07:44:19;;;;;;;17.17;6.10;;;;;;;25.79;76.33;101719.33;1704935;83;21737;-87
2022/08/24 07:46:46;;;;;;;19.50;6.75;;;;;;;25.83;75.88;101718.77;1643985;86;21460;-88
2022/08/24 07:49:13;;;;;;;13.83;6.15;;;;;;;25.86;75.53;101713.31;1640136;86;21014;-86
2022/08/24 07:51:40;;;;;;;17.15;6.50;;;;;;;25.88;74.76;101719.55;1672588;84;21802;-87
2022/08/24 07:54:07;;;;;;;20.72;7.60;;;;;;;25.75;74.49;101727.03;1676912;84;21018;-87
2022/08/24 07:56:34;;;;;;;15.10;6.78;;;;;;;25.74;74.33;101729.32;1667458;84;21694;-87
2022/08/24 07:59:00;;;;;;;13.93;6.55;;;;;;;25.75;73.87;101735.13;1664058;84;21022;-86
2022/08/24 08:01:28;;;;;;;20.08;7.08;;;;;;;25.71;73.99;101730.26;1667797;84;21052;-87
2022/08/24 08:03:55;;;;;;;14.00;6.05;;;;;;;25.79;74.11;101724.72;1668768;84;21006;-87
2022/08/24 08:06:22;;;;;;;18.50;5.78;;;;;;;25.91;73.79;101728.94;1665305;85;21128;-87
2022/08/24 08:08:52;;;;;;;22.40;6.72;;;;;;;26.10;74.38;101729.41;1643626;86;22535;-87
2022/08/24 08:11:20;;;;;;;19.45;7.90;;;;;;;26.40;73.93;101728.23;1642590;84;21082;-86
2022/08/24 08:13:46;;;;;;;23.70;7.12;;;;;;;26.69;73.20;101728.83;1654550;85;21008;-88
2022/08/24 08:16:15;;;;;;;20.48;8.13;;;;;;;26.85;72.64;101729.32;1661207;85;48438;-87
2022/08/24 08:18:43;;;;;;;29.82;10.82;;;;;;;26.93;72.19;101726.84;1610077;87;21079;-88
2022/08/24 08:24:13;;;;;;;20.85;8.03;;;;;;;27.00;71.84;101726.66;1676379;84;21214;-88
2022/08/24 08:26:23;;;;;;;15.72;6.10;;;;;;;27.06;70.87;101725.13;1720940;81;20995;-88
2022/08/24 08:28:50;;;;;;;17.52;5.92;;;;;;;26.84;70.38;101731.14;1713088;81;21165;-86
2022/08/24 08:31:17;;;;;;;16.87;8.95;;;;;;;26.66;70.05;101727.11;1713730;82;21016;-86
2022/08/24 08:33:46;;;;;;;14.00;5.97;;;;;;;26.46;70.18;101724.02;1705586;82;21836;-86
2022/08/24 08:36:14;;;;;;;9.78;5.80;;;;;;;26.33;70.31;101729.75;1714416;82;21453;-87
2022/08/24 08:38:45;;;;;;;18.50;7.95;;;;;;;26.23;70.15;101731.36;1720411;82;21013;-87
2022/08/24 08:41:39;;;;;;;14.30;5.95;;;;;;;26.08;70.40;101730.80;1705096;82;21050;-87
2022/08/24 08:44:19;;;;;;;16.37;5.40;;;;;;;25.98;70.50;101733.30;1661366;84;21071;-87
2022/08/24 08:47:11;;;;;;;16.15;6.30;;;;;;;25.92;70.62;101740.16;1664277;84;21817;-87
2022/08/24 08:50:22;;;;;;;11.40;6.08;;;;;;;25.92;70.58;101739.73;1680828;84;21007;-87
2022/08/24 08:52:57;;;;;;;10.63;5.40;;;;;;;25.94;70.35;101741.02;1674455;84;21490;-87
2022/08/24 08:55:51;;;;;;;8.33;4.53;;;;;;;26.00;70.05;101740.89;1663164;84;21078;-88
2022/08/24 08:58:54;;;;;;;15.68;5.37;;;;;;;26.15;69.98;101736.94;1643929;86;21497;-88
2022/08/24 09:01:54;;;;;;;15.25;5.90;;;;;;;26.17;69.43;101739.14;1644045;86;21803;-88
2022/08/24 09:05:01;;;;;;;11.15;4.80;;;;;;;26.21;69.73;101741.30;1645957;85;20999;-88
2022/08/24 09:07:56;;;;;;;10.43;4.58;;;;;;;26.19;69.13;101738.63;1660674;84;21003;-86
2022/08/24 09:10:37;;;;;;;14.28;6.17;;;;;;;26.19;69.54;101736.81;1622291;86;21010;-86
2022/08/24 09:13:33;;;;;;;15.70;5.17;;;;;;;26.44;69.46;101740.72;1650539;85;21023;-86
2022/08/24 09:16:10;;;;;;;10.85;5.17;;;;;;;26.55;69.11;101741.33;1629158;86;21279;-86
2022/08/24 09:19:03;;;;;;;15.23;5.25;;;;;;;26.55;68.69;101735.45;1655450;84;21027;-86
2022/08/24 09:21:50;;;;;;;12.55;5.65;;;;;;;26.43;68.22;101740.28;1647639;84;21024;-86
2022/08/24 09:24:34;;;;;;;16.17;7.50;;;;;;;26.14;68.25;101733.33;1672331;84;21063;-87
2022/08/24 09:27:31;;;;;;;14.78;6.37;;;;;;;26.17;68.96;101733.27;1656736;84;21058;-86
2022/08/24 09:30:06;;;;;;;14.18;5.72;;;;;;;26.19;68.64;101734.12;1632026;84;21800;-86
2022/08/24 09:33:09;;;;;;;17.02;6.50;;;;;;;26.12;68.60;101731.61;1658587;84;21078;-86
2022/08/24 09:36:05;;;;;;;13.72;5.87;;;;;;;26.09;68.40;101730.32;1655090;84;20991;-86
2022/08/24 09:39:06;;;;;;;20.77;6.05;;;;;;;26.16;68.70;101728.78;1654341;84;21335;-87
2022/08/24 09:41:41;;;;;;;12.03;4.50;;;;;;;26.28;68.58;101726.73;1650141;86;21489;-87
2022/08/24 09:44:40;;;;;;;14.05;5.83;;;;;;;26.22;68.06;101729.09;1656667;84;21759;-87
2022/08/24 09:47:32;;;;;;;12.68;4.45;;;;;;;26.00;67.65;101719.31;1659734;84;21003;-86
2022/08/24 09:50:43;;;;;;;13.10;5.10;;;;;;;25.84;67.87;101718.73;1645067;84;20991;-85
2022/08/24 09:53:41;;;;;;;12.63;5.12;;;;;;;25.84;68.05;101724.59;1662110;84;21294;-86
2022/08/24 09:56:28;;;;;;;17.62;5.15;;;;;;;25.84;68.20;101719.20;1642532;84;21543;-86
2022/08/24 09:59:50;;;;;;;17.92;6.33;;;;;;;25.87;68.39;101716.45;1662271;84;21773;-86
2022/08/24 10:02:28;;;;;;;12.00;4.95;;;;;;;25.95;68.58;101714.48;1647667;86;21047;-86
2022/08/24 10:05:10;;;;;;;19.25;5.95;;;;;;;26.03;68.40;101708.89;1637592;86;21122;-87
2022/08/24 10:08:27;;;;;;;13.72;5.45;;;;;;;26.04;68.06;101714.27;1662734;84;21006;-86
2022/08/24 10:11:18;;;;;;;13.40;6.25;;;;;;;26.03;68.19;101712.94;1655572;84;21685;-86
2022/08/24 10:14:32;;;;;;;14.68;7.00;;;;;;;26.02;68.05;101714.77;1648298;84;21188;-87
2022/08/24 10:17:13;;;;;;;19.10;6.50;;;;;;;26.07;68.36;101720.03;1643159;84;27879;-87
2022/08/24 10:20:04;;;;;;;19.65;7.03;;;;;;;26.13;68.38;101719.44;1657393;84;21011;-87
2022/08/24 10:23:11;;;;;;;19.70;7.97;;;;;;;26.27;68.34;101715.50;1661956;84;21463;-88
2022/08/24 10:25:52;;;;;;;19.25;6.50;;;;;;;26.35;68.14;101718.88;1690927;82;21015;-88
2022/08/24 10:28:47;;;;;;;14.47;6.83;;;;;;;26.39;67.86;101728.70;1664956;83;21690;-87
2022/08/24 10:31:24;;;;;;;20.62;7.15;;;;;;;26.42;67.81;101728.60;1682353;83;21007;-87
2022/08/24 10:34:20;;;;;;;19.05;7.35;;;;;;;26.51;67.82;101732.89;1664407;83;21039;-87
2022/08/24 10:36:55;;;;;;;21.62;7.12;;;;;;;26.60;67.82;101730.42;1689730;83;21008;-86
2022/08/24 10:39:42;;;;;;;16.52;6.47;;;;;;;26.62;67.55;101729.48;1674061;83;21529;-87
2022/08/24 10:46:02;;;;;;;18.32;6.47;;;;;;;26.58;67.23;101729.11;1704538;82;21003;-87
2022/08/24 10:48:37;;;;;;;14.50;6.17;;;;;;;26.58;67.30;101721.88;1702240;83;21680;-87
2022/08/24 10:51:30;;;;;;;16.85;6.60;;;;;;;26.72;67.46;101725.59;1696024;83;21012;-87
2022/08/24 10:53:57;;;;;;;13.83;6.03;;;;;;;26.83;67.33;101728.48;1679652;83;21071;-87
2022/08/24 10:56:32;;;;;;;15.80;6.12;;;;;;;26.93;67.21;101722.79;1707800;83;21724;-86
2022/08/24 10:59:13;;;;;;;17.42;5.75;;;;;;;27.03;66.97;101726.55;1689423;83;21020;-87
2022/08/24 11:01:40;;;;;;;15.08;5.95;;;;;;;27.07;66.68;101735.02;1701447;83;21497;-86
2022/08/24 11:04:13;;;;;;;18.23;6.00;;;;;;;27.08;66.46;101731.38;1647939;84;21230;-86
2022/08/24 11:07:06;;;;;;;18.77;10.32;;;;;;;27.05;66.27;101739.11;1681435;83;21019;-88
2022/08/24 11:09:52;;;;;;;20.00;7.37;;;;;;;27.02;66.47;101735.13;1701606;83;21678;-87
2022/08/24 11:12:31;;;;;;;18.02;6.33;;;;;;;27.15;66.43;101740.61;1689330;83;21083;-87
2022/08/24 11:15:01;;;;;;;15.43;6.35;;;;;;;27.22;66.02;101737.28;1694085;83;21528;-87
2022/08/24 11:17:30;;;;;;;20.90;6.60;;;;;;;27.22;65.95;101735.05;1698271;83;21027;-87
2022/08/24 11:19:58;;;;;;;18.50;5.80;;;;;;;27.28;65.96;101737.12;1703767;83;21082;-87
2022/08/24 11:22:44;;;;;;;16.77;6.40;;;;;;;27.30;65.66;101730.33;1702519;83;21741;-87
2022/08/24 11:25:26;;;;;;;21.23;6.35;;;;;;;27.39;65.69;101730.53;1706235;83;21038;-87
2022/08/24 11:28:14;;;;;;;19.65;8.15;;;;;;;27.46;65.55;101738.41;1660828;83;21015;-86
2022/08/24 11:30:42;;;;;;;15.70;5.35;;;;;;;27.50;65.51;101735.16;1683846;83;21067;-87
2022/08/24 11:33:32;;;;;;;19.40;6.08;;;;;;;27.46;65.22;101737.50;1661610;84;21015;-86
2022/08/24 11:36:03;;;;;;;15.98;5.55;;;;;;;27.46;65.28;101743.82;1716805;82;21742;-86
2022/08/24 11:38:33;;;;;;;15.38;5.90;;;;;;;27.47;65.38;101745.58;1717101;82;22112;-86
2022/08/24 11:41:14;;;;;;;17.62;6.17;;;;;;;27.58;65.38;101746.61;1714224;81;21062;-86
2022/08/24 11:43:59;;;;;;;15.63;5.83;;;;;;;27.62;64.84;101752.81;1684783;81;20979;-86
2022/08/24 11:46:45;;;;;;;16.93;6.65;;;;;;;27.49;65.03;101757.70;1721627;81;22035;-86
2022/08/24 11:49:47;;;;;;;24.47;5.67;;;;;;;27.41;64.78;101758.41;1669067;83;22422;-86